createdAt,value
2018-04-22T00:00:20.786Z,11.20
2018-04-22T00:02:48.479Z,11.16
2018-04-22T00:05:16.042Z,11.16
2018-04-22T00:07:43.601Z,11.11
2018-04-22T00:10:11.265Z,11.03
2018-04-22T00:12:38.817Z,10.92
2018-04-22T00:15:06.381Z,10.89
2018-04-22T00:17:33.991Z,10.80
2018-04-22T00:20:01.605Z,10.74
2018-04-22T00:22:29.307Z,10.74
2018-04-22T00:24:56.864Z,10.79
2018-04-22T00:27:24.420Z,10.83
2018-04-22T00:29:51.968Z,10.84
2018-04-22T00:32:19.578Z,10.92
2018-04-22T00:34:47.128Z,10.96
2018-04-22T00:37:14.737Z,11.00
2018-04-22T00:39:42.468Z,10.95
2018-04-22T00:42:10.023Z,10.91
2018-04-22T00:44:37.804Z,10.95
2018-04-22T00:47:05.494Z,10.96
2018-04-22T00:49:33.063Z,10.92
2018-04-22T00:52:00.860Z,10.91
2018-04-22T00:54:28.679Z,10.85
2018-04-22T00:56:56.497Z,10.79
2018-04-22T00:59:24.215Z,10.71
2018-04-22T01:01:51.787Z,10.61
2018-04-22T01:04:19.333Z,10.54
2018-04-22T01:06:47.070Z,10.49
2018-04-22T01:09:14.890Z,10.47
2018-04-22T01:11:42.497Z,10.48
2018-04-22T01:14:10.057Z,10.51
2018-04-22T01:16:37.614Z,10.52
2018-04-22T01:19:05.332Z,10.56
2018-04-22T01:21:32.884Z,10.49
2018-04-22T01:24:00.443Z,10.45
2018-04-22T01:26:28.105Z,10.49
2018-04-22T01:28:55.719Z,10.51
2018-04-22T01:31:23.421Z,10.53
2018-04-22T01:33:51.135Z,10.56
2018-04-22T01:36:18.720Z,10.57
2018-04-22T01:38:46.266Z,10.59
2018-04-22T01:41:13.993Z,10.56
2018-04-22T01:43:41.551Z,10.49
2018-04-22T01:46:09.363Z,10.42
2018-04-22T01:48:36.942Z,10.35
2018-04-22T01:51:04.700Z,10.31
2018-04-22T01:53:32.418Z,10.33
2018-04-22T01:55:59.978Z,10.33
2018-04-22T01:58:27.526Z,10.29
2018-04-22T02:00:55.125Z,10.30
2018-04-22T02:03:22.743Z,10.35
2018-04-22T02:05:50.412Z,10.39
2018-04-22T02:08:17.964Z,10.32
2018-04-22T02:10:45.744Z,10.20
2018-04-22T02:13:13.315Z,10.14
2018-04-22T02:15:41.043Z,10.11
2018-04-22T02:18:08.756Z,10.05
2018-04-22T02:20:36.382Z,9.99
2018-04-22T02:23:05.235Z,9.96
2018-04-22T02:25:32.803Z,9.88
2018-04-22T02:28:00.401Z,9.83
2018-04-22T02:30:28.191Z,9.82
2018-04-22T02:32:55.750Z,9.80
2018-04-22T02:35:23.300Z,9.81
2018-04-22T02:37:50.952Z,9.83
2018-04-22T02:40:18.516Z,9.90
2018-04-22T02:42:46.168Z,9.88
2018-04-22T02:45:13.895Z,9.94
2018-04-22T02:47:41.460Z,9.93
2018-04-22T02:50:09.021Z,9.89
2018-04-22T02:52:36.579Z,9.89
2018-04-22T02:55:04.196Z,9.86
2018-04-22T02:57:31.752Z,9.89
2018-04-22T02:59:59.501Z,9.87
2018-04-22T03:02:27.223Z,9.86
2018-04-22T03:04:54.773Z,9.86
2018-04-22T03:07:22.558Z,9.86
2018-04-22T03:09:50.248Z,9.86
2018-04-22T03:12:17.860Z,9.88
2018-04-22T03:14:45.612Z,9.89
2018-04-22T03:17:13.328Z,9.84
2018-04-22T03:19:41.146Z,9.87
2018-04-22T03:22:08.710Z,9.84
2018-04-22T03:24:36.445Z,9.82
2018-04-22T03:27:04.166Z,9.80
2018-04-22T03:29:31.761Z,9.75
2018-04-22T03:31:59.307Z,9.67
2018-04-22T03:34:26.861Z,9.67
2018-04-22T03:36:54.772Z,9.68
2018-04-22T03:39:22.320Z,9.69
2018-04-22T03:41:50.022Z,9.70
2018-04-22T03:44:17.581Z,9.72
2018-04-22T03:46:45.174Z,9.80
2018-04-22T03:49:12.721Z,9.81
2018-04-22T03:51:40.277Z,9.85
2018-04-22T03:54:07.999Z,9.89
2018-04-22T03:56:35.637Z,9.94
2018-04-22T03:59:03.478Z,10.00
2018-04-22T04:01:31.207Z,10.02
2018-04-22T04:03:59.141Z,9.85
2018-04-22T04:06:26.697Z,9.80
2018-04-22T04:08:54.279Z,9.81
2018-04-22T04:11:21.841Z,9.82
2018-04-22T04:13:49.403Z,9.86
2018-04-22T04:16:17.215Z,9.98
2018-04-22T04:19:05.590Z,10.29
2018-04-22T04:21:44.962Z,10.57
2018-04-22T04:27:26.161Z,10.70
2018-04-22T04:29:53.881Z,10.79
2018-04-22T04:32:21.492Z,10.85
2018-04-22T04:34:49.053Z,10.95
2018-04-22T04:37:16.616Z,11.05
2018-04-22T04:39:44.200Z,11.11
2018-04-22T04:42:11.754Z,11.20
2018-04-22T04:44:39.448Z,11.23
2018-04-22T04:47:07.207Z,11.31
2018-04-22T04:49:34.784Z,11.37
2018-04-22T04:52:02.349Z,11.43
2018-04-22T04:54:30.164Z,11.51
2018-04-22T04:56:57.855Z,11.63
2018-04-22T04:59:25.452Z,11.76
2018-04-22T05:01:53.109Z,11.92
2018-04-22T05:04:20.668Z,12.12
2018-04-22T05:06:48.272Z,12.35
2018-04-22T05:09:16.072Z,12.64
2018-04-22T05:11:43.680Z,13.92
2018-04-22T05:14:12.270Z,15.91
2018-04-22T05:16:39.988Z,17.83
2018-04-22T05:19:07.556Z,19.38
2018-04-22T05:21:35.118Z,20.60
2018-04-22T05:24:02.882Z,21.74
2018-04-22T05:26:30.599Z,22.82
2018-04-22T05:28:58.419Z,23.64
2018-04-22T05:31:25.996Z,24.73
2018-04-22T05:33:53.633Z,25.80
2018-04-22T05:36:21.200Z,26.71
2018-04-22T05:38:48.989Z,27.56
2018-04-22T05:41:16.564Z,28.17
2018-04-22T05:43:44.116Z,28.63
2018-04-22T05:46:11.731Z,29.28
2018-04-22T05:48:39.284Z,29.77
2018-04-22T05:51:06.849Z,29.80
2018-04-22T05:53:34.413Z,29.16
2018-04-22T05:56:01.972Z,29.21
2018-04-22T05:58:29.531Z,29.26
2018-04-22T06:00:57.141Z,29.48
2018-04-22T06:03:24.833Z,29.95
2018-04-22T06:05:52.552Z,30.50
2018-04-22T06:08:20.108Z,30.70
2018-04-22T06:10:47.688Z,30.72
2018-04-22T06:13:15.240Z,30.84
2018-04-22T06:15:42.812Z,30.70
2018-04-22T06:18:10.375Z,30.78
2018-04-22T06:20:37.996Z,30.29
2018-04-22T06:23:05.538Z,29.76
2018-04-22T06:25:33.334Z,29.89
2018-04-22T06:28:00.938Z,30.06
2018-04-22T06:30:28.625Z,30.03
2018-04-22T06:32:56.384Z,30.11
2018-04-22T06:35:24.078Z,30.50
2018-04-22T06:37:51.874Z,31.07
2018-04-22T06:40:19.447Z,31.69
2018-04-22T06:42:47.257Z,31.85
2018-04-22T06:45:14.837Z,32.12
2018-04-22T06:47:42.568Z,32.31
2018-04-22T06:50:10.136Z,32.54
2018-04-22T06:52:37.692Z,32.44
2018-04-22T06:55:05.548Z,32.84
2018-04-22T06:57:33.111Z,32.51
2018-04-22T07:00:00.885Z,32.23
2018-04-22T07:02:28.483Z,32.27
2018-04-22T07:04:56.038Z,32.76
2018-04-22T07:07:23.837Z,32.73
2018-04-22T07:09:51.656Z,33.28
2018-04-22T07:12:19.279Z,33.79
2018-04-22T07:14:46.849Z,33.51
2018-04-22T07:17:15.146Z,33.73
2018-04-22T07:19:44.099Z,34.13
2018-04-22T07:22:11.912Z,33.89
2018-04-22T07:24:39.521Z,33.89
2018-04-22T07:27:07.250Z,33.79
2018-04-22T07:29:34.996Z,33.86
2018-04-22T07:32:02.564Z,33.96
2018-04-22T07:34:30.121Z,33.92
2018-04-22T07:36:57.711Z,34.43
2018-04-22T07:39:25.267Z,34.80
2018-04-22T07:41:52.851Z,34.22
2018-04-22T07:44:20.675Z,33.61
2018-04-22T07:46:48.286Z,33.00
2018-04-22T07:49:15.972Z,31.93
2018-04-22T07:51:43.687Z,32.27
2018-04-22T07:54:11.255Z,32.50
2018-04-22T07:56:38.825Z,33.45
2018-04-22T07:59:06.397Z,33.76
2018-04-22T08:01:33.962Z,33.93
2018-04-22T08:04:01.589Z,33.74
2018-04-22T08:06:29.144Z,32.46
2018-04-22T08:08:56.745Z,31.59
2018-04-22T08:11:24.449Z,31.78
2018-04-22T08:13:52.009Z,30.92
2018-04-22T08:16:19.717Z,29.94
2018-04-22T08:18:47.268Z,29.11
2018-04-22T08:21:15.044Z,29.07
2018-04-22T08:23:42.644Z,29.03
2018-04-22T08:26:10.382Z,28.82
2018-04-22T08:28:37.945Z,29.33
2018-04-22T08:31:05.488Z,28.93
2018-04-22T08:33:33.048Z,29.31
2018-04-22T08:36:00.597Z,29.42
2018-04-22T08:38:28.260Z,29.75
2018-04-22T08:40:55.824Z,30.03
2018-04-22T08:43:23.383Z,30.76
2018-04-22T08:45:51.000Z,31.40
2018-04-22T08:48:18.548Z,31.51
2018-04-22T08:50:46.132Z,30.43
2018-04-22T08:53:13.701Z,30.28
2018-04-22T08:55:41.316Z,30.79
2018-04-22T08:58:08.868Z,31.31
2018-04-22T09:00:36.448Z,32.69
2018-04-22T09:03:04.039Z,33.31
2018-04-22T09:05:31.604Z,32.32
2018-04-22T09:07:59.165Z,31.80
2018-04-22T09:10:26.859Z,30.74
2018-04-22T09:12:54.465Z,30.84
2018-04-22T09:15:23.042Z,31.20
2018-04-22T09:17:50.764Z,30.65
2018-04-22T09:20:18.352Z,30.56
2018-04-22T09:22:46.097Z,30.46
2018-04-22T09:25:13.912Z,30.25
2018-04-22T09:27:41.574Z,29.76
2018-04-22T09:30:09.179Z,29.96
2018-04-22T09:32:36.733Z,30.47
2018-04-22T09:35:04.286Z,30.92
2018-04-22T09:37:31.835Z,30.78
2018-04-22T09:39:59.793Z,30.24
2018-04-22T09:42:27.373Z,30.86
2018-04-22T09:44:55.017Z,32.00
2018-04-22T09:47:22.980Z,32.70
2018-04-22T09:49:50.542Z,33.03
2018-04-22T09:52:18.297Z,33.11
2018-04-22T09:54:45.871Z,33.27
2018-04-22T09:57:13.607Z,33.54
2018-04-22T09:59:41.176Z,32.86
2018-04-22T10:02:14.396Z,32.22
2018-04-22T10:04:42.222Z,32.03
2018-04-22T10:07:09.943Z,31.59
2018-04-22T10:09:38.343Z,31.71
2018-04-22T10:12:05.900Z,32.33
2018-04-22T10:14:33.448Z,32.13
2018-04-22T10:17:00.989Z,32.64
2018-04-22T10:19:28.541Z,32.95
2018-04-22T10:21:56.118Z,32.88
2018-04-22T10:24:23.684Z,32.76
2018-04-22T10:26:51.470Z,32.76
2018-04-22T10:29:19.028Z,32.90
2018-04-22T10:31:46.823Z,32.86
2018-04-22T10:34:14.392Z,32.68
2018-04-22T10:36:42.162Z,32.99
2018-04-22T10:39:09.738Z,33.28
2018-04-22T10:41:37.496Z,32.70
2018-04-22T10:44:05.314Z,32.77
2018-04-22T10:46:32.872Z,33.44
2018-04-22T10:49:00.652Z,33.61
2018-04-22T10:51:28.370Z,33.40
2018-04-22T10:53:55.924Z,33.11
2018-04-22T10:56:23.705Z,33.04
2018-04-22T10:58:51.266Z,33.37
2018-04-22T11:01:19.044Z,33.31
2018-04-22T11:03:46.859Z,32.67
2018-04-22T11:06:14.460Z,32.21
2018-04-22T11:08:42.017Z,32.47
2018-04-22T11:11:09.816Z,32.65
2018-04-22T11:13:37.395Z,32.60
2018-04-22T11:16:04.982Z,32.68
2018-04-22T11:18:32.768Z,32.84
2018-04-22T11:21:00.324Z,33.03
2018-04-22T11:23:27.880Z,33.14
2018-04-22T11:25:55.447Z,33.11
2018-04-22T11:28:22.989Z,32.95
2018-04-22T11:30:50.760Z,32.61
2018-04-22T11:33:18.324Z,32.31
2018-04-22T11:35:45.955Z,32.07
2018-04-22T11:38:13.536Z,32.33
2018-04-22T11:40:41.330Z,32.12
2018-04-22T11:43:09.048Z,32.07
2018-04-22T11:45:36.674Z,32.07
2018-04-22T11:48:04.336Z,31.81
2018-04-22T11:50:32.004Z,31.59
2018-04-22T11:52:59.596Z,31.73
2018-04-22T11:55:27.160Z,31.40
2018-04-22T11:57:54.731Z,31.40
2018-04-22T12:00:22.386Z,31.37
2018-04-22T12:02:49.978Z,31.25
2018-04-22T12:05:17.671Z,31.23
2018-04-22T12:07:45.429Z,31.19
2018-04-22T12:10:13.042Z,31.40
2018-04-22T12:12:40.864Z,31.58
2018-04-22T12:15:08.497Z,31.63
2018-04-22T12:17:36.069Z,31.85
2018-04-22T12:20:03.920Z,32.14
2018-04-22T12:22:31.489Z,32.31
2018-04-22T12:24:59.259Z,32.32
2018-04-22T12:27:26.884Z,32.32
2018-04-22T12:29:54.529Z,31.97
2018-04-22T12:32:22.201Z,31.49
2018-04-22T12:34:49.908Z,31.41
2018-04-22T12:37:17.643Z,31.31
2018-04-22T12:39:45.281Z,31.00
2018-04-22T12:42:13.016Z,30.69
2018-04-22T12:44:40.612Z,30.53
2018-04-22T12:47:08.203Z,30.43
2018-04-22T12:49:35.804Z,30.37
2018-04-22T12:52:04.038Z,30.24
2018-04-22T12:54:31.780Z,30.19
2018-04-22T12:56:59.613Z,30.13
2018-04-22T12:59:27.288Z,30.05
2018-04-22T13:01:55.140Z,30.02
2018-04-22T13:04:22.701Z,29.92
2018-04-22T13:06:50.317Z,30.00
2018-04-22T13:09:18.085Z,30.17
2018-04-22T13:11:45.636Z,30.33
2018-04-22T13:14:13.247Z,30.56
2018-04-22T13:16:40.848Z,30.56
2018-04-22T13:19:08.404Z,30.57
2018-04-22T13:21:35.976Z,30.54
2018-04-22T13:24:03.548Z,30.27
2018-04-22T13:26:31.202Z,29.81
2018-04-22T13:28:58.768Z,29.76
2018-04-22T13:31:26.337Z,29.91
2018-04-22T13:33:53.905Z,30.13
2018-04-22T13:36:21.654Z,30.18
2018-04-22T13:38:49.268Z,30.29
2018-04-22T13:41:16.885Z,30.43
2018-04-22T13:43:44.456Z,30.29
2018-04-22T13:46:12.046Z,30.11
2018-04-22T13:48:39.607Z,30.27
2018-04-22T13:51:07.232Z,30.36
2018-04-22T13:53:34.784Z,30.46
2018-04-22T13:56:02.344Z,30.61
2018-04-22T13:58:29.931Z,30.53
2018-04-22T14:00:57.664Z,30.58
2018-04-22T14:03:25.278Z,30.54
2018-04-22T14:05:53.096Z,30.53
2018-04-22T14:08:20.689Z,30.53
2018-04-22T14:10:48.288Z,30.54
2018-04-22T14:13:16.055Z,30.39
2018-04-22T14:15:48.972Z,30.09
2018-04-22T14:18:16.540Z,30.19
2018-04-22T14:20:44.096Z,30.15
2018-04-22T14:23:11.664Z,30.08
2018-04-22T14:25:39.224Z,30.13
2018-04-22T14:28:07.036Z,30.03
2018-04-22T14:30:34.674Z,30.03
2018-04-22T14:33:02.395Z,30.09
2018-04-22T14:35:30.008Z,30.01
2018-04-22T14:37:57.730Z,29.91
2018-04-22T14:40:26.474Z,29.81
2018-04-22T14:42:54.020Z,29.84
2018-04-22T14:45:33.276Z,29.93
2018-04-22T14:48:01.065Z,29.96
2018-04-22T14:50:28.680Z,29.87
2018-04-22T14:52:56.244Z,29.85
2018-04-22T14:55:23.796Z,29.90
2018-04-22T14:57:51.376Z,29.85
2018-04-22T15:00:18.918Z,29.76
2018-04-22T15:02:46.752Z,29.76
2018-04-22T15:05:14.385Z,29.67
2018-04-22T15:07:42.213Z,29.51
2018-04-22T15:10:09.776Z,29.54
2018-04-22T15:12:37.324Z,29.47
2018-04-22T15:15:04.889Z,29.33
2018-04-22T15:17:32.440Z,29.34
2018-04-22T15:20:00.044Z,29.18
2018-04-22T15:22:27.596Z,29.10
2018-04-22T15:24:55.149Z,28.85
2018-04-22T15:27:22.953Z,28.70
2018-04-22T15:29:50.512Z,28.71
2018-04-22T15:32:18.292Z,28.75
2018-04-22T15:34:45.841Z,28.71
2018-04-22T15:37:13.626Z,28.66
2018-04-22T15:39:41.346Z,28.58
2018-04-22T15:42:08.900Z,28.52
2018-04-22T15:44:36.471Z,28.45
2018-04-22T15:47:04.045Z,28.37
2018-04-22T15:49:31.778Z,28.30
2018-04-22T15:51:59.338Z,28.17
2018-04-22T15:54:27.033Z,28.14
2018-04-22T15:56:54.589Z,28.10
2018-04-22T15:59:22.149Z,27.95
2018-04-22T16:01:49.693Z,27.89
2018-04-22T16:04:17.425Z,27.75
2018-04-22T16:06:45.032Z,27.57
2018-04-22T16:09:12.589Z,27.32
2018-04-22T16:11:40.149Z,26.92
2018-04-22T16:14:07.897Z,26.69
2018-04-22T16:16:35.514Z,26.43
2018-04-22T16:19:03.093Z,26.16
2018-04-22T16:21:30.652Z,25.95
2018-04-22T16:23:58.468Z,25.69
2018-04-22T16:26:26.022Z,25.45
2018-04-22T16:28:53.803Z,25.35
2018-04-22T16:31:21.623Z,25.20
2018-04-22T16:33:49.309Z,25.04
2018-04-22T16:36:16.924Z,24.87
2018-04-22T16:38:44.507Z,24.78
2018-04-22T16:41:12.060Z,24.70
2018-04-22T16:43:39.624Z,24.55
2018-04-22T16:46:07.197Z,24.45
2018-04-22T16:48:34.809Z,24.39
2018-04-22T16:51:02.394Z,24.30
2018-04-22T16:53:30.184Z,24.18
2018-04-22T16:55:57.784Z,24.08
2018-04-22T16:58:25.479Z,23.96
2018-04-22T17:00:53.220Z,23.85
2018-04-22T17:03:20.774Z,23.68
2018-04-22T17:05:48.391Z,23.59
2018-04-22T17:08:15.980Z,23.44
2018-04-22T17:10:43.589Z,23.31
2018-04-22T17:13:11.165Z,23.17
2018-04-22T17:15:38.724Z,23.00
2018-04-22T17:18:06.319Z,22.77
2018-04-22T17:20:33.875Z,22.69
2018-04-22T17:23:01.537Z,22.62
2018-04-22T17:25:29.164Z,22.52
2018-04-22T17:27:56.753Z,22.36
2018-04-22T17:30:24.330Z,22.22
2018-04-22T17:32:51.966Z,22.18
2018-04-22T17:35:19.689Z,22.05
2018-04-22T17:37:47.400Z,21.95
2018-04-22T17:40:15.230Z,21.88
2018-04-22T17:42:42.788Z,21.79
2018-04-22T17:45:10.567Z,21.75
2018-04-22T17:47:38.169Z,21.71
2018-04-22T17:50:05.717Z,21.63
2018-04-22T17:52:33.293Z,21.54
2018-04-22T17:55:00.852Z,21.39
2018-04-22T17:57:28.469Z,21.37
2018-04-22T17:59:56.272Z,21.32
2018-04-22T18:02:23.933Z,21.27
2018-04-22T18:04:51.490Z,21.21
2018-04-22T18:07:19.203Z,21.19
2018-04-22T18:09:46.776Z,21.15
2018-04-22T18:12:14.405Z,21.07
2018-04-22T18:14:42.091Z,20.98
2018-04-22T18:17:09.865Z,20.89
2018-04-22T18:19:37.531Z,20.78
2018-04-22T18:22:05.073Z,20.70
2018-04-22T18:24:32.620Z,20.52
2018-04-22T18:27:00.367Z,20.44
2018-04-22T18:29:28.087Z,20.43
2018-04-22T18:31:55.716Z,20.37
2018-04-22T18:34:23.523Z,20.33
2018-04-22T18:36:51.090Z,20.24
2018-04-22T18:39:18.708Z,20.14
2018-04-22T18:41:46.310Z,20.06
2018-04-22T18:44:13.920Z,19.97
2018-04-22T18:46:41.715Z,19.84
2018-04-22T18:49:09.441Z,19.68
2018-04-22T18:51:37.004Z,19.55
2018-04-22T18:54:04.670Z,19.44
2018-04-22T18:56:32.250Z,19.39
2018-04-22T18:58:59.824Z,19.30
2018-04-22T19:01:27.401Z,19.22
2018-04-22T19:03:55.141Z,19.17
2018-04-22T19:06:23.062Z,19.13
2018-04-22T19:08:50.780Z,19.03
2018-04-22T19:11:18.694Z,18.96
2018-04-22T19:13:46.297Z,18.91
2018-04-22T19:16:13.979Z,18.80
2018-04-22T19:18:41.546Z,18.77
2018-04-22T19:21:09.103Z,18.73
2018-04-22T19:23:36.710Z,18.71
2018-04-22T19:26:04.284Z,18.67
2018-04-22T19:28:32.960Z,18.62
2018-04-22T19:31:00.547Z,18.59
2018-04-22T19:33:28.261Z,18.54
2018-04-22T19:35:55.828Z,18.56
2018-04-22T19:38:23.441Z,18.55
2018-04-22T19:40:51.048Z,18.45
2018-04-22T19:43:18.832Z,18.41
2018-04-22T19:45:46.551Z,18.38
2018-04-22T19:48:14.148Z,18.36
2018-04-22T19:50:41.705Z,18.26
2018-04-22T19:53:09.273Z,18.25
2018-04-22T19:55:36.826Z,18.26
2018-04-22T19:58:04.464Z,18.22
2018-04-22T20:00:32.056Z,18.20
2018-04-22T20:02:59.630Z,18.15
2018-04-22T20:05:27.204Z,18.03
2018-04-22T20:07:54.762Z,17.89
2018-04-22T20:10:22.372Z,17.84
2018-04-22T20:12:50.110Z,17.75
2018-04-22T20:15:17.734Z,17.69
2018-04-22T20:17:45.291Z,17.67
2018-04-22T20:20:12.840Z,17.63
2018-04-22T20:22:40.500Z,17.61
2018-04-22T20:25:08.236Z,17.54
2018-04-22T20:27:36.065Z,17.43
2018-04-22T20:30:03.876Z,17.29
2018-04-22T20:32:31.528Z,17.08
2018-04-22T20:34:59.312Z,16.90
2018-04-22T20:37:26.888Z,16.84
2018-04-22T20:39:54.444Z,16.76
2018-04-22T20:42:22.284Z,16.77
2018-04-22T20:44:50.086Z,16.75
2018-04-22T20:47:17.649Z,16.74
2018-04-22T20:49:45.212Z,16.71
2018-04-22T20:52:12.774Z,16.67
2018-04-22T20:54:40.343Z,16.67
2018-04-22T20:57:07.896Z,16.67
2018-04-22T20:59:35.692Z,16.60
2018-04-22T21:02:03.295Z,16.46
2018-04-22T21:04:31.028Z,16.41
2018-04-22T21:06:58.595Z,16.34
2018-04-22T21:09:26.365Z,16.26
2018-04-22T21:11:53.933Z,16.26
2018-04-22T21:14:21.493Z,16.24
2018-04-22T21:16:49.319Z,16.24
2018-04-22T21:19:16.876Z,16.27
2018-04-22T21:21:44.417Z,16.24
2018-04-22T21:24:11.980Z,16.18
2018-04-22T21:26:39.536Z,16.11
2018-04-22T21:29:07.409Z,15.98
2018-04-22T21:31:34.971Z,15.92
2018-04-22T21:34:02.747Z,15.87
2018-04-22T21:36:30.565Z,15.81
2018-04-22T21:38:58.121Z,15.75
2018-04-22T21:41:25.900Z,15.65
2018-04-22T21:43:53.465Z,15.60
2018-04-22T21:46:21.040Z,15.56
2018-04-22T21:48:48.600Z,15.53
2018-04-22T21:51:16.158Z,15.52
2018-04-22T21:53:43.774Z,15.41
2018-04-22T21:56:11.338Z,15.37
2018-04-22T21:58:39.205Z,15.41
2018-04-22T22:01:06.764Z,15.43
2018-04-22T22:03:34.359Z,15.41
2018-04-22T22:06:01.945Z,15.35
2018-04-22T22:08:29.500Z,15.25
2018-04-22T22:10:57.317Z,15.23
2018-04-22T22:13:25.038Z,15.21
2018-04-22T22:15:52.645Z,15.21
2018-04-22T22:18:20.204Z,15.15
2018-04-22T22:20:47.794Z,15.12
2018-04-22T22:23:15.372Z,15.06
2018-04-22T22:25:42.933Z,14.97
2018-04-22T22:28:11.224Z,14.89
2018-04-22T22:30:38.790Z,14.91
2018-04-22T22:33:06.349Z,14.94
2018-04-22T22:35:33.917Z,14.96
2018-04-22T22:38:01.468Z,14.88
2018-04-22T22:40:29.039Z,14.76
2018-04-22T22:42:56.593Z,14.63
2018-04-22T22:45:24.204Z,14.56
2018-04-22T22:47:51.987Z,14.48
2018-04-22T22:50:19.549Z,14.49
2018-04-22T22:52:47.133Z,14.40
2018-04-22T22:55:14.707Z,14.39
2018-04-22T22:57:42.344Z,14.30
2018-04-22T23:00:09.969Z,14.29
2018-04-22T23:02:37.794Z,14.28
2018-04-22T23:05:05.356Z,14.22
2018-04-22T23:07:32.894Z,14.23
2018-04-22T23:10:00.689Z,14.19
2018-04-22T23:12:28.472Z,14.21
2018-04-22T23:14:56.083Z,14.21
2018-04-22T23:17:23.904Z,14.21
2018-04-22T23:19:51.445Z,14.24
2018-04-22T23:22:19.120Z,14.22
2018-04-22T23:24:46.958Z,14.20
2018-04-22T23:27:14.516Z,14.10
2018-04-22T23:29:42.295Z,13.99
2018-04-22T23:32:09.865Z,13.92
2018-04-22T23:34:37.422Z,13.95
2018-04-22T23:37:05.044Z,13.89
2018-04-22T23:39:32.738Z,13.85
2018-04-22T23:42:00.289Z,13.91
2018-04-22T23:44:27.852Z,13.88
2018-04-22T23:46:55.527Z,13.87
2018-04-22T23:49:23.339Z,13.82
2018-04-22T23:51:51.020Z,13.80
2018-04-22T23:54:18.670Z,13.74
2018-04-22T23:56:46.493Z,13.73
2018-04-22T23:59:14.211Z,13.73
